Time;durP1;ratioP1;P1;durP2;ratioP2;P2;SDS_P1;SDS_P2;PMS_P1;PMS_P2;Temp;Humidity;BMP_temperature;BMP_pressure;BME280_temperature;BME280_humidity;BME280_pressure;Samples;Min_cycle;Max_cycle;Signal;HPM_P1;HPM_P2
2021/08/05 00:00:57;;;;;;;20.08;16.58;;;14.60;99.90;;;15.96;100.00;100126.44;6281142;22;20006;-88
2021/08/05 00:03:23;;;;;;;18.30;14.65;;;14.60;99.90;;;15.94;100.00;100132.47;6278364;22;20000;-89
2021/08/05 00:05:50;;;;;;;24.17;18.67;;;14.60;99.90;;;15.95;100.00;100131.28;6280011;22;20003;-89
2021/08/05 00:08:18;;;;;;;25.40;20.25;;;14.70;99.90;;;15.97;100.00;100119.59;6278871;22;20106;-91
2021/08/05 00:10:45;;;;;;;22.45;18.27;;;14.60;99.90;;;15.98;100.00;100122.00;6276951;22;20031;-90
2021/08/05 00:13:11;;;;;;;24.50;19.17;;;14.60;99.90;;;15.97;100.00;100114.75;6280481;22;20006;-90
2021/08/05 00:15:37;;;;;;;27.42;21.90;;;14.60;99.90;;;15.98;100.00;100121.19;6276174;22;20003;-91
2021/08/05 00:18:03;;;;;;;29.20;23.75;;;14.60;99.90;;;15.95;100.00;100105.94;6277947;22;20015;-92
2021/08/05 00:20:30;;;;;;;32.85;23.58;;;14.60;99.90;;;15.98;100.00;100109.94;6276505;22;20004;-91
2021/08/05 00:22:56;;;;;;;29.38;22.02;;;14.70;99.90;;;15.99;100.00;100106.69;6278470;22;19995;-92
2021/08/05 00:25:25;;;;;;;27.40;19.83;;;14.60;99.90;;;16.03;100.00;100101.06;6277517;22;20081;-90
2021/08/05 00:27:51;;;;;;;23.83;18.58;;;14.70;99.90;;;16.05;100.00;100099.47;6276957;22;20019;-91
2021/08/05 00:30:17;;;;;;;21.70;17.52;;;14.70;99.90;;;16.07;100.00;100096.22;6280955;22;20007;-88
2021/08/05 00:32:43;;;;;;;24.40;17.95;;;14.70;99.90;;;16.06;100.00;100100.22;6294838;22;20031;-90
2021/08/05 00:35:10;;;;;;;34.92;22.63;;;14.80;99.90;;;16.06;100.00;100097.41;6285756;22;20015;-92
2021/08/05 00:37:37;;;;;;;30.55;22.23;;;14.70;99.90;;;16.03;100.00;100090.59;6277364;22;20054;-92
2021/08/05 00:40:06;;;;;;;32.30;23.55;;;14.80;99.90;;;16.06;100.00;100106.69;6276616;22;20014;-92
2021/08/05 00:42:33;;;;;;;28.80;21.70;;;14.70;99.90;;;16.07;100.00;100107.47;6276472;22;20061;-90
2021/08/05 00:44:59;;;;;;;26.95;20.05;;;14.70;99.90;;;16.09;100.00;100097.41;6275149;22;20014;-92
2021/08/05 00:47:28;;;;;;;26.33;20.50;;;14.70;99.90;;;16.05;100.00;100093.81;6276367;22;20012;-89
2021/08/05 00:49:56;;;;;;;29.02;19.95;;;14.70;99.90;;;16.06;100.00;100091.78;6277239;22;20010;-90
2021/08/05 00:52:25;;;;;;;27.23;19.67;;;14.70;99.90;;;16.08;100.00;100092.19;6275735;22;20018;-90
2021/08/05 00:54:51;;;;;;;26.35;20.02;;;14.70;99.90;;;16.09;100.00;100091.78;6276770;22;20011;-89
2021/08/05 00:57:22;;;;;;;35.83;27.02;;;14.70;99.90;;;16.01;100.00;100083.75;6276942;22;20054;-91
2021/08/05 00:59:49;;;;;;;33.67;24.25;;;14.70;99.90;;;16.04;100.00;100086.56;6278672;22;20003;-93
2021/08/05 01:02:20;;;;;;;31.75;23.65;;;14.70;99.90;;;16.03;100.00;100082.13;6276210;22;20006;-90
2021/08/05 01:04:52;;;;;;;32.22;24.02;;;14.60;99.90;;;16.06;100.00;100084.13;6275282;22;20008;-91
2021/08/05 01:07:44;;;;;;;28.20;21.65;;;14.70;99.90;;;16.03;100.00;100078.53;6275880;22;20012;-92
2021/08/05 01:10:56;;;;;;;23.50;18.63;;;14.60;99.90;;;16.05;100.00;100082.56;6277905;22;20031;-91
2021/08/05 01:13:48;;;;;;;26.63;19.77;;;14.70;99.90;;;16.05;100.00;100076.91;6274928;22;20079;-90
2021/08/05 01:16:21;;;;;;;27.58;20.10;;;14.70;99.90;;;16.03;100.00;100075.69;6274742;22;20098;-90
2021/08/05 01:18:52;;;;;;;23.60;18.52;;;14.70;99.90;;;16.02;100.00;100074.91;6276998;22;20086;-91
2021/08/05 01:22:03;;;;;;;27.95;21.23;;;14.70;99.90;;;16.02;100.00;100077.72;6276043;22;20069;-91
2021/08/05 01:24:41;;;;;;;30.33;21.52;;;14.60;99.90;;;16.02;100.00;100074.91;6275609;22;20233;-89
2021/08/05 01:27:08;;;;;;;25.52;20.30;;;14.60;99.90;;;16.00;100.00;100074.50;6275498;22;20050;-90
2021/08/05 01:29:38;;;;;;;32.53;24.45;;;14.60;99.90;;;16.01;100.00;100072.50;6275975;22;20072;-90
2021/08/05 01:32:07;;;;;;;28.13;21.98;;;14.60;99.90;;;16.01;100.00;100064.84;6277251;22;20008;-90
2021/08/05 01:34:36;;;;;;;32.45;22.58;;;14.60;99.90;;;15.98;100.00;100065.69;6275850;22;20015;-90
2021/08/05 01:37:08;;;;;;;25.63;19.70;;;14.60;99.90;;;16.00;100.00;100066.06;6275958;22;20012;-91
2021/08/05 01:39:34;;;;;;;26.70;18.95;;;14.60;99.90;;;16.00;100.00;100065.25;6273800;22;20008;-90
2021/08/05 01:42:01;;;;;;;31.92;24.58;;;14.60;99.90;;;16.01;100.00;100059.22;6273959;22;20445;-90
2021/08/05 01:44:29;;;;;;;28.85;20.70;;;14.60;99.90;;;15.97;100.00;100060.44;6275366;22;20011;-92
2021/08/05 01:46:58;;;;;;;25.02;18.60;;;14.60;99.90;;;15.91;100.00;100048.81;6275858;22;20146;-92
2021/08/05 01:49:26;;;;;;;31.55;23.92;;;14.50;99.90;;;15.93;100.00;100045.56;6275786;22;20007;-90
2021/08/05 01:51:54;;;;;;;32.63;23.80;;;14.60;99.90;;;15.95;100.00;100052.41;6276510;22;20070;-91
2021/08/05 01:54:20;;;;;;;32.30;24.20;;;14.60;99.90;;;16.01;100.00;100047.16;6277059;22;19996;-90
2021/08/05 01:56:46;;;;;;;24.00;18.70;;;14.60;99.90;;;15.99;100.00;100043.94;6275165;22;20004;-90
2021/08/05 01:59:12;;;;;;;28.65;20.15;;;14.60;99.90;;;16.00;100.00;100037.91;6275220;22;20054;-88
2021/08/05 02:01:38;;;;;;;32.08;22.88;;;14.70;99.90;;;16.00;100.00;100042.72;6276682;22;20019;-89
2021/08/05 02:04:47;;;;;;;27.05;19.85;;;14.60;99.90;;;16.02;100.00;100041.09;6275579;22;20099;-89
2021/08/05 02:07:25;;;;;;;25.00;18.33;;;14.60;99.90;;;16.00;100.00;100034.28;6276766;22;20008;-88
2021/08/05 02:10:04;;;;;;;34.28;21.92;;;14.70;99.90;;;16.03;100.00;100039.91;6274637;22;20094;-89
2021/08/05 02:12:42;;;;;;;34.33;25.40;;;14.60;99.90;;;15.98;100.00;100033.88;6276413;22;20259;-89
2021/08/05 02:15:10;;;;;;;34.10;24.02;;;14.60;99.90;;;16.01;100.00;100025.44;6274396;22;20008;-89
2021/08/05 02:17:43;;;;;;;28.70;21.88;;;14.60;99.90;;;16.03;100.00;100028.63;6277092;22;20141;-90
2021/08/05 02:20:13;;;;;;;31.50;22.85;;;14.70;99.90;;;16.03;100.00;100025.81;6296658;22;20026;-88
2021/08/05 02:22:44;;;;;;;32.85;24.23;;;14.60;99.90;;;16.03;100.00;100025.00;6286481;22;20018;-90
2021/08/05 02:25:13;;;;;;;29.65;23.20;;;14.60;99.90;;;16.00;100.00;100028.63;6276532;22;20394;-89
2021/08/05 02:27:42;;;;;;;33.38;22.60;;;14.60;99.90;;;16.00;100.00;100026.63;6276889;22;20472;-88
2021/08/05 02:30:10;;;;;;;32.50;21.52;;;14.60;99.90;;;16.03;100.00;100025.00;6273939;22;20014;-91
2021/08/05 02:32:39;;;;;;;35.00;25.17;;;14.60;99.90;;;16.03;100.00;100025.00;6277884;22;20003;-90
2021/08/05 02:35:11;;;;;;;27.38;20.42;;;14.60;99.90;;;16.04;100.00;100032.25;6276321;22;20011;-91
2021/08/05 02:37:39;;;;;;;29.50;21.35;;;14.70;99.90;;;16.03;100.00;100033.44;6278205;22;20007;-90
2021/08/05 02:40:11;;;;;;;28.73;20.77;;;14.70;99.90;;;16.02;100.00;100031.88;6277840;22;20004;-91
2021/08/05 02:42:39;;;;;;;30.17;22.88;;;14.60;99.90;;;16.01;100.00;100035.88;6277025;22;20004;-91
2021/08/05 02:45:07;;;;;;;34.55;24.65;;;14.60;99.90;;;15.99;100.00;100043.94;6275851;22;20012;-91
2021/08/05 02:47:33;;;;;;;28.75;21.42;;;14.60;99.90;;;15.96;100.00;100031.47;6276588;22;20029;-90
2021/08/05 02:50:06;;;;;;;32.35;23.23;;;14.60;99.90;;;15.93;100.00;100032.28;6275570;22;20145;-91
2021/08/05 02:52:35;;;;;;;26.95;18.92;;;14.60;99.90;;;15.93;100.00;100032.28;6278469;22;20070;-91
2021/08/05 02:55:06;;;;;;;27.52;18.55;;;14.50;99.90;;;15.92;100.00;100039.16;6278825;22;19999;-91
2021/08/05 02:57:36;;;;;;;24.42;18.30;;;14.50;99.90;;;15.92;100.00;100029.91;6278257;22;20061;-90
2021/08/05 03:00:05;;;;;;;26.75;18.50;;;14.50;99.90;;;15.89;100.00;100031.53;6276190;22;20042;-89
2021/08/05 03:02:31;;;;;;;29.77;22.15;;;14.50;99.90;;;15.90;100.00;100026.66;6276795;22;20008;-90
2021/08/05 03:04:57;;;;;;;28.38;20.27;;;14.50;99.90;;;15.87;100.00;100027.50;6275913;22;20016;-91
2021/08/05 03:07:25;;;;;;;26.90;19.95;;;14.50;99.90;;;15.83;100.00;100019.84;6277105;22;20571;-90
2021/08/05 03:09:51;;;;;;;27.50;18.95;;;14.50;99.90;;;15.81;100.00;100011.03;6276041;22;20007;-88
2021/08/05 03:12:19;;;;;;;32.83;25.20;;;14.40;99.90;;;15.83;100.00;100017.03;6277463;22;20120;-90
2021/08/05 03:14:45;;;;;;;24.35;19.35;;;14.40;99.90;;;15.83;100.00;100024.69;6277150;22;20004;-90
2021/08/05 03:17:12;;;;;;;31.45;23.75;;;14.40;99.90;;;15.82;100.00;100014.66;6276957;22;20095;-91
2021/08/05 03:19:38;;;;;;;23.15;19.00;;;14.40;99.90;;;15.82;100.00;100009.03;6275608;22;20167;-89
2021/08/05 03:22:05;;;;;;;23.38;17.27;;;14.40;99.90;;;15.79;100.00;100015.47;6277103;22;20026;-90
2021/08/05 03:24:31;;;;;;;27.33;18.95;;;14.40;99.90;;;15.77;100.00;100009.44;6277211;22;20008;-89
2021/08/05 03:27:05;;;;;;;28.05;20.75;;;14.40;99.90;;;15.75;100.00;100011.88;6278538;22;20008;-88
2021/08/05 03:29:38;;;;;;;24.52;18.98;;;14.40;99.90;;;15.76;100.00;99999.41;6278312;22;20018;-91
2021/08/05 03:32:05;;;;;;;25.95;19.17;;;14.40;99.90;;;15.75;100.00;99987.34;6277037;22;20018;-90
2021/08/05 03:34:32;;;;;;;23.00;18.23;;;14.40;99.90;;;15.76;100.00;100005.03;6276543;22;20003;-89
2021/08/05 03:36:58;;;;;;;26.48;20.90;;;14.50;99.90;;;15.78;100.00;99994.97;6275536;22;20011;-89
2021/08/05 03:39:24;;;;;;;27.85;20.85;;;14.40;99.90;;;15.82;100.00;99992.13;6277869;22;20002;-91
2021/08/05 03:41:51;;;;;;;24.38;18.75;;;14.50;99.90;;;15.79;100.00;99990.94;6276459;22;20008;-91
2021/08/05 03:44:18;;;;;;;23.90;16.70;;;14.40;99.90;;;15.80;100.00;99988.91;6276068;22;20022;-89
2021/08/05 03:46:45;;;;;;;25.25;19.75;;;14.40;99.90;;;15.78;100.00;99977.25;6277043;22;20012;-92
2021/08/05 03:49:11;;;;;;;23.48;18.83;;;14.40;99.90;;;15.76;100.00;99985.31;6276386;22;20047;-92
2021/08/05 03:51:37;;;;;;;23.92;18.25;;;14.40;99.90;;;15.77;100.00;99989.72;6277014;22;20448;-89
2021/08/05 03:54:03;;;;;;;22.30;16.90;;;14.40;99.90;;;15.75;100.00;99984.50;6275252;22;20016;-91
2021/08/05 03:56:29;;;;;;;26.45;19.50;;;14.30;99.90;;;15.71;100.00;99980.09;6274921;22;20188;-90
2021/08/05 03:58:57;;;;;;;24.23;18.42;;;14.30;99.90;;;15.73;100.00;99986.13;6276610;22;20503;-90
2021/08/05 04:01:25;;;;;;;23.30;16.67;;;14.30;99.90;;;15.74;100.00;99982.09;6275689;22;20031;-89
2021/08/05 04:03:51;;;;;;;21.13;17.73;;;14.40;99.90;;;15.70;100.00;99981.34;6276059;22;20004;-90
2021/08/05 04:06:16;;;;;;;24.35;20.60;;;14.30;99.90;;;15.65;100.00;99979.72;6282733;22;19999;-86
2021/08/05 04:08:43;;;;;;;25.02;17.92;;;14.30;99.90;;;15.68;100.00;99978.91;6300132;22;19999;-89
2021/08/05 04:11:09;;;;;;;23.25;17.08;;;14.30;99.90;;;15.66;100.00;99981.34;6282073;22;20015;-90
2021/08/05 04:13:41;;;;;;;23.08;18.10;;;14.30;99.90;;;15.68;100.00;99976.09;6279811;22;20225;-87
2021/08/05 04:16:08;;;;;;;24.95;18.77;;;14.30;99.90;;;15.69;100.00;99986.16;6276762;22;20035;-90
2021/08/05 04:18:34;;;;;;;20.15;16.98;;;14.30;99.90;;;15.69;100.00;99985.34;6277018;22;20071;-89
2021/08/05 04:21:00;;;;;;;24.23;17.52;;;14.40;99.90;;;15.67;100.00;99976.47;6277723;22;20008;-89
2021/08/05 04:23:26;;;;;;;21.70;16.95;;;14.30;99.90;;;15.67;100.00;99977.28;6277960;22;20007;-88
2021/08/05 04:25:52;;;;;;;18.30;14.02;;;14.30;99.90;;;15.67;100.00;99984.94;6274567;22;20034;-88
2021/08/05 04:28:18;;;;;;;17.92;14.50;;;14.30;99.90;;;15.66;100.00;99978.53;6278285;22;20003;-87
2021/08/05 04:30:46;;;;;;;21.23;15.40;;;14.20;99.90;;;15.69;100.00;99985.34;6277064;22;20066;-89
2021/08/05 04:33:13;;;;;;;19.48;15.32;;;14.30;99.90;;;15.69;100.00;99985.34;6278289;22;20011;-88
2021/08/05 04:35:42;;;;;;;20.88;15.63;;;14.30;99.90;;;15.71;100.00;99978.09;6278193;22;20025;-89
2021/08/05 04:38:10;;;;;;;18.75;15.05;;;14.30;99.90;;;15.71;100.00;99988.53;6278363;22;20010;-89
2021/08/05 04:40:36;;;;;;;24.50;18.10;;;14.30;99.90;;;15.75;100.00;99994.97;6279507;22;20031;-85
2021/08/05 04:43:02;;;;;;;18.08;14.30;;;14.30;99.90;;;15.76;100.00;99990.94;6280139;22;20259;-86
2021/08/05 04:45:29;;;;;;;19.52;15.40;;;14.40;99.90;;;15.82;100.00;99986.50;6298487;22;20163;-87
2021/08/05 04:48:04;;;;;;;18.05;14.88;;;14.40;99.90;;;15.89;100.00;99994.91;6291728;22;20012;-90
2021/08/05 04:50:41;;;;;;;16.25;13.40;;;14.40;99.90;;;15.95;100.00;99986.84;6280242;22;20012;-90
2021/08/05 04:53:09;;;;;;;21.05;15.60;;;14.50;99.90;;;15.99;100.00;99984.81;6280512;22;20050;-88
2021/08/05 04:55:35;;;;;;;20.10;15.90;;;14.60;99.90;;;16.07;100.00;99989.16;6278537;22;20014;-86
2021/08/05 04:58:06;;;;;;;18.33;15.73;;;14.60;99.90;;;16.10;100.00;99980.72;6277375;22;20039;-89
2021/08/05 05:00:43;;;;;;;20.08;15.93;;;14.60;99.90;;;16.16;100.00;99981.88;6280111;22;20012;-91
2021/08/05 05:03:11;;;;;;;23.27;16.58;;;14.70;99.90;;;16.22;100.00;99977.41;6278151;22;20344;-91
2021/08/05 05:05:39;;;;;;;23.35;18.73;;;14.80;99.90;;;16.30;100.00;99978.16;6276502;22;20012;-89
2021/08/05 05:08:19;;;;;;;25.48;17.30;;;14.80;99.90;;;16.39;100.00;99970.03;6277699;22;20026;-91
2021/08/05 05:10:47;;;;;;;23.42;17.95;;;14.90;99.90;;;16.48;100.00;99973.19;6277185;22;20011;-90
2021/08/05 05:13:17;;;;;;;24.80;18.08;;;15.00;99.90;;;16.55;100.00;99966.72;6289175;22;20451;-90
2021/08/05 05:15:44;;;;;;;20.33;15.88;;;15.00;99.90;;;16.64;100.00;99967.06;6281976;22;20008;-90
2021/08/05 05:18:12;;;;;;;20.50;15.48;;;15.10;99.90;;;16.75;100.00;99970.59;6283732;22;20008;-89
2021/08/05 05:20:38;;;;;;;18.63;15.75;;;15.20;99.90;;;16.87;100.00;99972.91;6279987;22;20010;-90
2021/08/05 11:18:30;;;;;;;15.05;9.50;;;22.20;99.90;;;23.50;68.46;99839.41;6286994;22;20012;-87
2021/08/05 11:20:58;;;;;;;13.23;11.77;;;21.80;99.90;;;23.19;70.75;99847.06;6262050;22;20006;-87
2021/08/05 11:25:57;;;;;;;20.35;15.02;;;21.20;99.90;;;22.58;78.13;99850.47;6283362;22;20080;-85
2021/08/05 11:28:28;;;;;;;18.48;15.00;;;21.00;99.90;;;22.48;78.34;99846.72;6258716;22;20007;-87
2021/08/05 11:30:59;;;;;;;17.73;15.02;;;20.80;99.90;;;22.45;78.85;99839.13;6257393;22;20095;-86
2021/08/05 11:33:38;;;;;;;16.00;13.88;;;20.70;99.90;;;22.50;78.22;99847.09;6256339;22;20004;-88
2021/08/05 11:36:40;;;;;;;13.80;11.45;;;20.70;99.90;;;22.71;77.14;99844.75;6227057;23;20013;-87
2021/08/05 11:39:13;;;;;;;15.80;13.30;;;20.80;99.90;;;23.19;81.23;99843.44;6226261;23;20015;-89
2021/08/05 11:42:16;;;;;;;16.83;13.32;;;21.10;99.90;;;24.16;76.67;99847.84;6252775;23;20019;-88
2021/08/05 11:45:07;;;;;;;13.40;12.00;;;21.80;99.90;;;24.74;69.66;99853.53;6251390;23;20022;-86
2021/08/05 11:47:42;;;;;;;16.23;12.98;;;22.70;99.90;;;25.61;68.50;99856.56;6206839;23;20027;-87
2021/08/05 11:50:12;;;;;;;14.05;12.50;;;23.50;99.90;;;25.89;63.69;99848.69;6252244;23;20004;-86
2021/08/05 11:52:50;;;;;;;18.35;14.40;;;23.70;99.90;;;25.74;65.48;99842.84;6223813;23;20457;-87
2021/08/05 11:55:27;;;;;;;18.90;16.27;;;23.70;99.90;;;24.75;67.92;99840.84;6250021;23;20015;-87
2021/08/05 11:57:59;;;;;;;18.45;16.52;;;23.40;99.90;;;23.96;71.68;99837.59;6254213;23;20027;-87
2021/08/05 12:00:39;;;;;;;17.17;15.15;;;22.90;99.90;;;24.41;69.41;99836.16;6252150;23;20426;-87
2021/08/05 12:03:09;;;;;;;18.83;16.83;;;22.80;99.90;;;23.99;71.15;99824.44;6250491;23;20064;-88
2021/08/05 12:05:47;;;;;;;17.80;15.90;;;22.50;99.90;;;24.00;70.64;99811.78;6251542;23;20012;-87
2021/08/05 12:08:21;;;;;;;20.27;18.05;;;22.40;99.90;;;24.46;69.27;99804.16;6251269;23;20010;-87
2021/08/05 12:10:48;;;;;;;17.90;15.20;;;22.70;99.90;;;24.62;66.29;99804.66;6250726;23;20058;-87
2021/08/05 12:13:20;;;;;;;18.17;14.88;;;22.70;99.90;;;24.44;67.89;99806.69;6252172;23;20460;-90
2021/08/05 12:15:55;;;;;;;14.68;12.77;;;22.70;99.90;;;24.35;63.17;99804.63;6277088;22;20016;-90
2021/08/05 12:18:27;;;;;;;11.65;9.23;;;22.90;99.90;;;24.77;61.40;99798.31;6226426;23;20381;-89
2021/08/05 12:21:06;;;;;;;7.88;7.00;;;23.10;99.90;;;25.54;55.99;99799.69;6224897;23;20007;-88
2021/08/05 12:23:37;;;;;;;6.93;4.80;;;23.70;99.90;;;25.63;55.71;99797.59;6276361;22;20014;-88
2021/08/05 12:26:19;;;;;;;5.13;4.15;;;23.90;99.90;;;25.68;53.90;99801.88;6253847;23;20484;-92
2021/08/05 12:28:47;;;;;;;3.90;3.50;;;24.20;99.90;;;25.68;52.35;99794.09;6231841;23;20492;-90
2021/08/05 12:31:23;;;;;;;4.90;3.33;;;24.30;99.90;;;26.08;53.18;99779.44;6255946;23;20079;-86
2021/08/05 12:33:50;;;;;;;5.05;3.55;;;24.60;99.90;;;26.34;52.13;99784.72;6228743;23;20019;-86
2021/08/05 12:36:19;;;;;;;4.55;3.70;;;24.70;99.90;;;26.65;50.98;99791.66;6226713;23;20047;-88
2021/08/05 12:39:07;;;;;;;6.07;4.53;;;24.80;99.90;;;26.78;53.87;99777.06;6250705;23;20035;-87
2021/08/05 12:41:49;;;;;;;4.63;3.85;;;25.00;99.90;;;27.13;51.57;99783.78;6224821;23;20015;-86
2021/08/05 12:44:19;;;;;;;5.80;4.07;;;25.10;99.90;;;26.18;50.45;99775.28;6252133;23;20099;-83
2021/08/05 12:46:56;;;;;;;5.57;5.00;;;24.60;99.90;;;25.24;52.94;99777.84;6225841;23;20019;-86
2021/08/05 12:49:38;;;;;;;6.80;5.10;;;24.00;99.90;;;25.04;56.07;99769.78;6249381;23;20004;-87
2021/08/05 12:52:06;;;;;;;5.93;5.05;;;23.70;99.90;;;25.50;53.21;99777.00;6223409;23;20290;-86
2021/08/05 12:54:34;;;;;;;5.00;4.50;;;23.80;99.90;;;26.32;52.31;99781.56;6223408;23;20099;-87
2021/08/05 12:57:17;;;;;;;4.25;3.67;;;24.20;99.90;;;27.04;50.71;99769.56;6248908;23;20008;-86
2021/08/05 12:59:51;;;;;;;3.22;2.92;;;24.80;99.90;;;27.21;48.16;99775.59;6248695;23;20094;-86
2021/08/05 13:02:18;;;;;;;3.58;3.28;;;25.30;99.90;;;27.82;48.04;99773.03;6247818;23;20008;-85
2021/08/05 13:04:46;;;;;;;2.97;2.53;;;25.50;99.90;;;28.03;47.55;99777.53;6223412;23;20015;-85
2021/08/05 13:07:15;;;;;;;2.45;2.22;;;25.90;99.90;;;28.27;44.26;99767.47;6250435;23;20004;-87
2021/08/05 13:09:53;;;;;;;2.85;2.20;;;26.10;93.20;;;28.10;44.03;99759.91;6223399;23;20012;-88
2021/08/05 13:12:30;;;;;;;2.17;1.98;;;26.00;91.10;;;27.77;42.06;99763.06;6222935;23;20118;-87
2021/08/05 13:14:58;;;;;;;3.25;2.08;;;25.90;84.80;;;27.31;43.29;99757.03;6223252;23;20004;-88
2021/08/05 13:17:25;;;;;;;2.97;2.67;;;25.80;86.10;;;27.08;43.63;99758.69;6249974;23;20000;-84
2021/08/05 13:20:07;;;;;;;2.50;2.30;;;25.60;84.70;;;27.68;43.06;99757.41;6224434;23;20012;-84
2021/08/05 13:22:49;;;;;;;6.40;3.17;;;25.60;84.40;;;27.63;43.07;99744.56;6224870;23;20414;-88
2021/08/05 13:25:20;;;;;;;2.22;2.03;;;25.70;84.90;;;28.41;43.58;99742.09;6219708;23;20012;-84
2021/08/05 13:28:14;;;;;;;3.85;2.85;;;26.00;89.00;;;28.52;42.86;99734.38;6195774;23;20019;-88
2021/08/05 13:31:03;;;;;;;3.28;2.90;;;26.00;87.80;;;28.61;42.21;99737.09;6204836;23;20013;-86
2021/08/05 13:33:30;;;;;;;2.88;2.60;;;26.10;84.60;;;28.75;42.45;99721.09;6236417;22;20044;-86
2021/08/05 13:36:01;;;;;;;4.90;3.08;;;26.30;84.10;;;28.33;43.90;99726.56;6194832;23;20351;-87
2021/08/05 13:38:43;;;;;;;3.03;2.72;;;26.20;86.40;;;28.46;42.03;99719.16;6218568;23;20012;-86
2021/08/05 13:41:09;;;;;;;2.85;2.55;;;26.20;81.80;;;28.72;42.42;99710.63;6192579;23;20009;-88
2021/08/05 13:43:35;;;;;;;3.03;2.30;;;26.30;85.00;;;28.69;42.64;99712.44;6192505;23;20008;-85
2021/08/05 13:46:00;;;;;;;4.80;3.03;;;26.20;84.20;;;28.58;42.94;99712.25;6192821;23;20433;-86
2021/08/05 13:48:28;;;;;;;2.50;2.30;;;26.30;84.00;;;28.85;41.71;99708.16;6192913;23;20008;-87
2021/08/05 13:50:54;;;;;;;4.72;3.88;;;26.30;81.90;;;28.75;42.21;99712.47;6192421;23;20012;-85
2021/08/05 13:53:20;;;;;;;3.20;2.90;;;26.50;83.30;;;28.47;41.60;99697.78;6243405;23;20455;-86
2021/08/05 13:55:47;;;;;;;4.72;2.63;;;26.40;79.00;;;28.62;40.45;99703.41;6192991;23;20013;-85
2021/08/05 13:58:13;;;;;;;3.33;2.47;;;26.30;77.00;;;28.80;40.46;99694.53;6192810;23;20004;-85
2021/08/05 14:00:39;;;;;;;4.35;3.03;;;26.50;77.00;;;28.78;40.59;99694.22;6220403;23;20107;-87
2021/08/05 14:03:05;;;;;;;4.20;2.95;;;26.60;77.30;;;28.95;41.40;99695.19;6194984;23;20388;-87
2021/08/05 14:05:31;;;;;;;7.05;4.70;;;26.60;78.70;;;28.87;41.84;99699.00;6195326;23;20017;-87
2021/08/05 14:08:00;;;;;;;4.03;3.47;;;26.60;79.90;;;28.71;41.14;99695.47;6196462;23;20005;-87
2021/08/05 14:10:25;;;;;;;3.67;2.75;;;26.60;77.30;;;28.89;42.59;99688.63;6220048;23;20017;-85
2021/08/05 14:12:52;;;;;;;3.60;3.08;;;26.60;81.10;;;28.70;40.75;99691.03;6193123;23;20287;-86
2021/08/05 14:15:19;;;;;;;4.25;2.90;;;26.50;76.50;;;28.50;41.83;99688.16;6243997;23;20020;-86
2021/08/05 14:17:46;;;;;;;6.05;3.88;;;26.40;77.80;;;28.20;43.60;99689.59;6221612;23;20442;-87
2021/08/05 14:20:13;;;;;;;3.95;3.55;;;26.30;80.60;;;28.49;42.47;99675.06;6195517;23;20111;-89
2021/08/05 14:22:40;;;;;;;3.83;2.85;;;26.30;79.60;;;28.57;42.11;99666.81;6194615;23;20004;-88
2021/08/05 14:25:08;;;;;;;4.40;3.28;;;26.40;79.20;;;28.58;42.21;99660.56;6210229;23;20024;-89
2021/08/05 14:27:34;;;;;;;4.78;2.80;;;26.40;78.00;;;28.71;40.89;99660.97;6221118;23;20015;-86
2021/08/05 14:30:02;;;;;;;3.30;3.00;;;26.30;77.10;;;28.69;41.71;99654.97;6221527;23;20034;-89
2021/08/05 14:32:28;;;;;;;3.63;2.45;;;26.30;79.10;;;28.76;42.86;99653.72;6199270;23;20016;-89
2021/08/05 14:34:54;;;;;;;4.07;3.03;;;26.20;82.30;;;28.46;43.01;99666.69;6197730;23;20350;-86
2021/08/05 14:37:21;;;;;;;3.25;2.70;;;26.20;82.00;;;28.45;42.31;99656.50;6197814;23;20457;-88
2021/08/05 14:39:48;;;;;;;3.05;2.58;;;26.20;79.00;;;28.58;43.34;99648.25;6248939;23;20005;-87
2021/08/05 14:42:15;;;;;;;3.50;3.15;;;26.30;82.30;;;28.37;43.05;99649.59;6199310;23;20057;-86
2021/08/05 14:44:41;;;;;;;3.03;2.80;;;26.10;81.40;;;27.96;44.21;99649.59;6249356;23;20009;-88
2021/08/05 14:47:07;;;;;;;5.53;4.32;;;26.10;82.10;;;27.68;44.85;99646.31;6198739;23;20018;-89
2021/08/05 14:49:33;;;;;;;4.47;3.30;;;25.90;82.50;;;27.96;42.25;99645.94;6200866;23;20028;-88
2021/08/05 14:52:01;;;;;;;3.13;2.83;;;25.90;78.70;;;27.93;43.34;99635.47;6199282;23;20009;-85
2021/08/05 14:54:27;;;;;;;3.45;2.80;;;25.80;81.60;;;28.05;43.74;99628.56;6247615;23;20016;-90
2021/08/05 14:56:54;;;;;;;3.65;2.63;;;25.80;82.70;;;27.94;43.70;99632.06;6194004;23;20066;-90
2021/08/05 14:59:23;;;;;;;3.47;2.70;;;25.80;82.00;;;27.99;43.53;99633.44;6194993;23;20001;-91
2021/08/05 15:01:49;;;;;;;6.90;3.22;;;25.80;82.30;;;28.05;43.07;99625.69;6220846;23;20004;-91
2021/08/05 15:04:15;;;;;;;3.42;2.80;;;25.70;81.30;;;27.56;44.48;99621.66;6221079;23;20043;-87
2021/08/05 15:06:42;;;;;;;3.08;2.67;;;25.40;83.20;;;26.71;45.88;99622.81;6194649;23;20010;-89
2021/08/05 15:09:15;;;;;;;3.13;2.63;;;24.90;84.10;;;26.23;47.63;99624.22;6219641;23;20011;-88
2021/08/05 15:11:42;;;;;;;3.05;2.30;;;24.70;89.20;;;26.53;46.83;99609.44;6220693;23;20004;-89
2021/08/05 15:14:09;;;;;;;2.83;2.55;;;24.60;88.00;;;26.78;45.03;99619.53;6218365;23;20011;-86
2021/08/05 15:16:36;;;;;;;3.28;2.67;;;24.70;84.70;;;26.81;45.58;99618.56;6219617;23;20032;-89
2021/08/05 15:19:02;;;;;;;5.10;3.30;;;24.80;85.80;;;26.96;44.46;99612.84;6194671;23;20015;-86
2021/08/05 15:21:30;;;;;;;3.83;3.17;;;24.90;83.60;;;26.76;45.69;99609.84;6194535;23;20422;-89
2021/08/05 15:23:57;;;;;;;5.45;3.30;;;24.70;85.70;;;26.51;46.61;99609.16;6226955;23;20004;-89
2021/08/05 15:26:27;;;;;;;3.80;3.40;;;24.60;87.20;;;26.38;46.79;99605.78;6225721;23;20125;-87
2021/08/05 15:28:53;;;;;;;3.55;2.78;;;24.40;89.30;;;26.09;46.86;99606.50;6251652;23;20008;-87
2021/08/05 15:31:19;;;;;;;5.65;2.80;;;24.20;88.00;;;25.81;47.89;99602.25;6253189;23;20011;-87
2021/08/05 15:33:45;;;;;;;3.85;3.15;;;24.00;90.90;;;25.37;49.63;99599.16;6226716;23;20012;-88
2021/08/05 15:36:13;;;;;;;3.30;2.42;;;23.70;92.60;;;25.06;50.71;99590.91;6251080;23;20451;-87
2021/08/05 15:38:39;;;;;;;3.08;2.70;;;23.40;93.70;;;24.90;50.69;99591.28;6224772;23;20349;-87
2021/08/05 15:41:05;;;;;;;2.83;2.20;;;23.30;94.80;;;24.78;50.86;99591.44;6224101;23;20013;-88
2021/08/05 15:43:31;;;;;;;4.18;3.05;;;23.10;94.40;;;24.41;50.94;99587.88;6250629;23;20004;-88
2021/08/05 15:45:58;;;;;;;5.72;2.63;;;22.90;94.70;;;24.32;51.61;99585.84;6226099;23;20387;-90
2021/08/05 15:48:25;;;;;;;4.65;2.47;;;22.80;96.00;;;24.25;52.00;99586.16;6226374;23;20091;-88
2021/08/05 15:50:51;;;;;;;2.60;2.40;;;22.70;96.90;;;24.20;52.67;99583.94;6297038;22;19996;-86
2021/08/05 15:53:18;;;;;;;4.13;2.80;;;22.70;98.30;;;24.06;53.74;99581.69;6238551;23;20016;-89
2021/08/05 15:55:50;;;;;;;4.22;2.80;;;22.50;99.70;;;23.79;54.22;99587.41;6226538;23;20012;-87
2021/08/05 15:58:23;;;;;;;4.68;2.95;;;22.50;99.90;;;23.69;56.72;99594.34;6223656;23;20008;-92
2021/08/05 16:00:50;;;;;;;4.13;3.00;;;22.30;99.90;;;23.69;56.88;99580.09;6222747;23;20008;-88
2021/08/05 16:03:26;;;;;;;3.72;2.92;;;22.30;99.90;;;23.59;57.19;99590.69;6222811;23;20406;-89
2021/08/05 16:05:59;;;;;;;3.17;2.72;;;22.20;99.90;;;23.57;57.95;99579.75;6224213;23;20023;-90
2021/08/05 16:08:29;;;;;;;3.88;3.42;;;22.10;99.90;;;23.61;57.59;99580.41;6248800;23;20039;-91
2021/08/05 16:10:55;;;;;;;3.30;3.00;;;22.10;99.90;;;23.67;56.58;99572.00;6222025;23;20012;-89
2021/08/05 16:13:21;;;;;;;4.10;2.90;;;22.10;99.90;;;23.72;57.77;99571.41;6223148;23;20019;-88
2021/08/05 16:15:48;;;;;;;3.15;2.67;;;22.20;99.90;;;23.75;56.09;99570.44;6223305;23;20008;-90